createdAt,value
2022-11-04T00:00:31.997Z,85.09
2022-11-04T00:03:00.466Z,85.42
2022-11-04T00:05:30.367Z,85.50
2022-11-04T00:08:15.941Z,85.47
2022-11-04T00:11:01.411Z,84.98
2022-11-04T00:13:30.208Z,85.16
2022-11-04T00:16:19.459Z,85.28
2022-11-04T00:18:47.668Z,85.10
2022-11-04T00:21:34.717Z,85.09
2022-11-04T00:24:20.574Z,84.87
2022-11-04T00:27:06.580Z,84.83
2022-11-04T00:29:34.872Z,84.57
2022-11-04T00:32:20.748Z,84.39
2022-11-04T00:34:49.029Z,84.57
2022-11-04T00:37:19.306Z,84.87
2022-11-04T00:39:50.305Z,84.81
2022-11-04T00:42:18.606Z,85.06
2022-11-04T00:44:47.135Z,85.29
2022-11-04T00:47:15.332Z,85.39
2022-11-04T00:49:43.590Z,85.61
2022-11-04T00:52:11.868Z,85.43
2022-11-04T00:54:41.532Z,85.39
2022-11-04T00:57:11.047Z,85.80
2022-11-04T00:59:39.857Z,85.67
2022-11-04T01:02:09.054Z,85.55
2022-11-04T01:04:37.824Z,85.91
2022-11-04T01:07:06.069Z,85.99
2022-11-04T01:09:34.333Z,86.09
2022-11-04T01:12:04.158Z,86.31
2022-11-04T01:14:32.639Z,86.55
2022-11-04T01:17:01.248Z,86.66
2022-11-04T01:19:29.513Z,86.70
2022-11-04T01:21:57.727Z,86.54
2022-11-04T01:24:25.963Z,86.39
2022-11-04T01:26:54.106Z,86.28
2022-11-04T01:29:23.817Z,85.99
2022-11-04T01:31:52.109Z,86.06
2022-11-04T01:34:20.496Z,86.03
2022-11-04T01:36:48.722Z,85.92
2022-11-04T01:39:16.932Z,85.28
2022-11-04T01:41:45.254Z,84.84
2022-11-04T01:44:50.568Z,84.73
2022-11-04T01:47:20.855Z,84.50
2022-11-04T01:49:51.889Z,84.52
2022-11-04T01:52:25.655Z,84.27
2022-11-04T01:54:56.125Z,84.30
2022-11-04T01:57:28.731Z,84.29
2022-11-04T02:00:01.707Z,84.17
2022-11-04T02:02:47.720Z,84.58
2022-11-04T02:05:16.029Z,84.35
2022-11-04T02:07:44.583Z,84.38
2022-11-04T02:10:13.677Z,84.52
2022-11-04T02:12:49.663Z,84.11
2022-11-04T02:15:25.203Z,84.09
2022-11-04T02:18:22.174Z,83.79
2022-11-04T02:21:18.004Z,83.12
2022-11-04T02:24:11.933Z,82.80
2022-11-04T02:27:14.886Z,82.95
2022-11-04T02:30:00.038Z,82.68
2022-11-04T02:32:36.851Z,82.10
2022-11-04T02:35:12.871Z,82.58
2022-11-04T02:37:50.677Z,82.75
2022-11-04T02:40:26.225Z,82.91
2022-11-04T02:42:58.636Z,83.00
2022-11-04T02:45:34.571Z,83.16
2022-11-04T02:48:08.522Z,83.49
2022-11-04T02:50:44.297Z,83.36
2022-11-04T02:53:18.765Z,83.60
2022-11-04T02:55:49.626Z,83.92
2022-11-04T02:58:23.207Z,84.02
2022-11-04T03:00:55.270Z,83.95
2022-11-04T03:03:27.585Z,83.78
2022-11-04T03:05:59.654Z,84.13
2022-11-04T03:08:33.674Z,83.89
2022-11-04T03:11:06.401Z,84.19
2022-11-04T03:13:40.345Z,84.40
2022-11-04T03:16:14.719Z,83.97
2022-11-04T03:19:00.332Z,83.53
2022-11-04T03:21:32.472Z,83.36
2022-11-04T03:24:01.936Z,83.76
2022-11-04T03:26:34.870Z,83.88
2022-11-04T03:29:15.343Z,84.16
2022-11-04T03:31:49.278Z,84.20
2022-11-04T03:34:17.540Z,84.58
2022-11-04T03:36:45.861Z,84.37
2022-11-04T03:39:14.254Z,84.42
2022-11-04T03:41:46.409Z,84.53
2022-11-04T03:44:14.776Z,84.81
2022-11-04T03:46:43.106Z,84.68
2022-11-04T03:49:13.568Z,84.48
2022-11-04T03:51:41.744Z,84.68
2022-11-04T03:54:10.680Z,84.97
2022-11-04T03:57:01.756Z,84.88
2022-11-04T03:59:59.034Z,85.34
2022-11-04T04:02:40.150Z,85.49
2022-11-04T04:05:17.836Z,85.78
2022-11-04T04:07:51.397Z,85.78
2022-11-04T04:10:42.474Z,85.96
2022-11-04T04:13:19.902Z,85.36
2022-11-04T04:15:53.825Z,85.14
2022-11-04T04:18:31.884Z,85.19
2022-11-04T04:21:05.500Z,85.20
2022-11-04T04:23:54.111Z,85.09
2022-11-04T04:26:41.562Z,85.16
2022-11-04T04:29:11.468Z,85.31
2022-11-04T04:31:57.588Z,85.19
2022-11-04T04:34:28.862Z,84.68
2022-11-04T04:37:03.666Z,84.59
2022-11-04T04:39:56.892Z,84.97
2022-11-04T04:42:43.379Z,84.59
2022-11-04T04:45:20.497Z,84.53
2022-11-04T04:47:48.833Z,84.58
2022-11-04T04:50:18.898Z,84.50
2022-11-04T04:52:51.371Z,84.36
2022-11-04T04:55:20.185Z,84.32
2022-11-04T04:57:48.578Z,84.24
2022-11-04T05:00:19.265Z,84.55
2022-11-04T05:02:48.104Z,84.60
2022-11-04T05:05:16.828Z,84.81
2022-11-04T05:07:45.082Z,84.74
2022-11-04T05:10:16.251Z,85.04
2022-11-04T05:13:02.350Z,84.92
2022-11-04T05:15:31.705Z,84.17
2022-11-04T05:18:01.670Z,84.24
2022-11-04T05:20:30.524Z,84.00
2022-11-04T05:22:58.752Z,84.13
2022-11-04T05:25:28.343Z,84.45
2022-11-04T05:28:00.104Z,84.25
2022-11-04T05:30:28.513Z,84.26
2022-11-04T05:32:59.983Z,83.96
2022-11-04T05:35:31.884Z,84.15
2022-11-04T05:38:00.136Z,84.10
2022-11-04T05:40:29.703Z,84.07
2022-11-04T05:43:00.188Z,84.07
2022-11-04T05:45:28.839Z,84.50
2022-11-04T05:48:01.113Z,84.29
2022-11-04T05:50:29.741Z,84.39
2022-11-04T05:52:58.684Z,84.41
2022-11-04T05:55:27.285Z,84.71
2022-11-04T05:57:58.007Z,84.35
2022-11-04T06:00:26.554Z,84.52
2022-11-04T06:02:57.263Z,84.54
2022-11-04T06:05:25.947Z,85.00
2022-11-04T06:07:54.492Z,85.15
2022-11-04T06:10:22.696Z,85.30
2022-11-04T06:12:50.893Z,85.10
2022-11-04T06:15:20.703Z,85.19
2022-11-04T06:17:48.913Z,85.64
2022-11-04T06:20:17.239Z,86.15
2022-11-04T06:22:45.704Z,86.61
2022-11-04T06:25:14.124Z,86.98
2022-11-04T06:27:42.321Z,87.03
2022-11-04T06:30:12.860Z,87.20
2022-11-04T06:32:42.438Z,87.34
2022-11-04T06:35:10.966Z,87.25
2022-11-04T06:37:39.389Z,87.08
2022-11-04T06:40:09.171Z,87.23
2022-11-04T06:42:37.344Z,87.59
2022-11-04T06:45:06.358Z,88.03
2022-11-04T06:47:34.617Z,88.21
2022-11-04T06:50:04.494Z,88.11
2022-11-04T06:52:34.904Z,88.09
2022-11-04T06:55:07.574Z,88.44
2022-11-04T06:57:35.828Z,88.51
2022-11-04T07:00:04.499Z,88.80
2022-11-04T07:02:32.884Z,88.95
2022-11-04T07:05:01.280Z,88.87
2022-11-04T07:07:31.815Z,88.98
2022-11-04T07:10:00.177Z,88.89
2022-11-04T07:12:28.395Z,88.88
2022-11-04T07:14:56.765Z,88.73
2022-11-04T07:17:25.028Z,88.73
2022-11-04T07:19:55.459Z,88.72
2022-11-04T07:22:23.752Z,88.99
2022-11-04T07:24:57.965Z,89.12
2022-11-04T07:27:26.147Z,88.80
2022-11-04T07:29:54.493Z,88.56
2022-11-04T07:32:25.096Z,88.51
2022-11-04T07:34:53.360Z,88.71
2022-11-04T07:37:21.556Z,88.61
2022-11-04T07:39:54.433Z,88.60
2022-11-04T07:42:24.035Z,88.26
2022-11-04T07:44:57.355Z,87.27
2022-11-04T07:47:25.728Z,86.54
2022-11-04T07:49:53.988Z,85.85
2022-11-04T07:52:22.236Z,85.65
2022-11-04T07:54:50.514Z,85.46
2022-11-04T07:57:18.831Z,85.39
2022-11-04T07:59:48.381Z,84.95
2022-11-04T08:02:19.713Z,85.29
2022-11-04T08:04:52.158Z,85.61
2022-11-04T08:07:20.406Z,85.61
2022-11-04T08:09:48.680Z,85.08
2022-11-04T08:12:16.859Z,84.58
2022-11-04T08:14:45.197Z,83.55
2022-11-04T08:17:14.718Z,82.66
2022-11-04T08:19:42.935Z,83.27
2022-11-04T08:22:11.113Z,83.29
2022-11-04T08:24:40.365Z,82.94
2022-11-04T08:27:10.099Z,83.23
2022-11-04T08:29:38.640Z,81.89
2022-11-04T08:32:08.480Z,81.49
2022-11-04T08:34:38.030Z,81.29
2022-11-04T08:37:06.475Z,82.09
2022-11-04T08:39:35.168Z,81.62
2022-11-04T08:42:03.441Z,81.47
2022-11-04T08:44:31.678Z,81.22
2022-11-04T08:46:59.862Z,81.20
2022-11-04T08:49:28.170Z,79.95
2022-11-04T08:51:59.817Z,80.69
2022-11-04T08:54:28.620Z,80.75
2022-11-04T08:56:57.115Z,80.73
2022-11-04T08:59:25.523Z,80.32
2022-11-04T09:01:53.984Z,80.33
2022-11-04T09:04:22.258Z,80.68
2022-11-04T09:06:51.093Z,79.77
2022-11-04T09:09:21.124Z,79.30
2022-11-04T09:11:49.464Z,80.08
2022-11-04T09:14:18.843Z,80.65
2022-11-04T09:16:47.094Z,80.46
2022-11-04T09:19:15.278Z,80.43
2022-11-04T09:21:43.664Z,80.52
2022-11-04T09:24:12.336Z,80.23
2022-11-04T09:26:41.941Z,80.48
2022-11-04T09:29:10.211Z,79.98
2022-11-04T09:31:38.869Z,79.78
2022-11-04T09:34:07.149Z,79.17
2022-11-04T09:36:35.471Z,78.72
2022-11-04T09:39:03.632Z,78.76
2022-11-04T09:41:54.308Z,78.17
2022-11-04T09:44:30.411Z,78.23
2022-11-04T09:47:02.704Z,78.11
2022-11-04T09:49:36.660Z,78.34
2022-11-04T09:52:14.451Z,78.28
2022-11-04T09:54:47.411Z,77.44
2022-11-04T09:57:19.494Z,77.73
2022-11-04T09:59:49.562Z,77.06
2022-11-04T10:02:40.020Z,77.15
2022-11-04T10:05:22.084Z,77.56
2022-11-04T10:08:10.635Z,77.50
2022-11-04T10:10:47.587Z,77.53
2022-11-04T10:13:26.383Z,77.10
2022-11-04T10:16:07.673Z,77.06
2022-11-04T10:19:11.518Z,77.09
2022-11-04T10:21:47.838Z,77.34
2022-11-04T10:24:41.382Z,77.85
2022-11-04T10:27:17.426Z,78.03
2022-11-04T10:29:47.017Z,78.50
2022-11-04T10:32:25.180Z,78.34
2022-11-04T10:34:58.311Z,78.05
2022-11-04T10:37:27.705Z,77.69
2022-11-04T10:40:03.795Z,78.23
2022-11-04T10:42:33.527Z,78.13
2022-11-04T10:45:02.624Z,77.65
2022-11-04T10:47:44.704Z,78.16
2022-11-04T10:50:31.352Z,78.75
2022-11-04T10:53:12.995Z,78.00
2022-11-04T10:55:50.221Z,77.18
2022-11-04T10:58:23.173Z,76.88
2022-11-04T11:00:52.721Z,76.93
2022-11-04T11:03:31.775Z,76.76
2022-11-04T11:06:16.975Z,77.17
2022-11-04T11:08:45.608Z,76.70
2022-11-04T11:11:15.349Z,76.37
2022-11-04T11:13:46.419Z,76.53
2022-11-04T11:16:19.966Z,76.31
2022-11-04T11:19:14.109Z,75.72
2022-11-04T11:21:45.261Z,76.29
2022-11-04T11:24:20.693Z,76.44
2022-11-04T11:26:51.001Z,75.73
2022-11-04T11:29:25.947Z,76.11
2022-11-04T11:31:55.971Z,76.06
2022-11-04T11:34:29.569Z,75.89
2022-11-04T11:36:58.762Z,75.79
2022-11-04T11:39:28.877Z,74.98
2022-11-04T11:42:00.367Z,76.86
2022-11-04T11:44:33.075Z,75.76
2022-11-04T11:47:03.448Z,75.54
2022-11-04T11:49:35.943Z,76.89
2022-11-04T11:52:31.759Z,76.82
2022-11-04T11:55:06.140Z,76.51
2022-11-04T11:57:45.213Z,76.76
2022-11-04T12:03:15.456Z,75.57
2022-11-04T12:09:19.038Z,75.62
2022-11-04T12:12:23.624Z,76.25
2022-11-04T12:15:05.151Z,77.10
2022-11-04T12:17:54.592Z,76.96
2022-11-04T12:20:34.308Z,76.87
2022-11-04T12:23:11.861Z,77.02
2022-11-04T12:25:48.135Z,77.38
2022-11-04T12:28:25.675Z,77.76
2022-11-04T12:31:04.732Z,77.29
2022-11-04T12:33:41.211Z,76.40
2022-11-04T12:36:44.110Z,77.34
2022-11-04T12:39:28.853Z,76.19
2022-11-04T12:42:21.058Z,75.22
2022-11-04T12:44:58.583Z,76.63
2022-11-04T12:47:36.274Z,75.21
2022-11-04T12:50:14.120Z,75.47
2022-11-04T12:53:04.382Z,74.99
2022-11-04T12:55:47.459Z,75.37
2022-11-04T12:58:32.307Z,75.90
2022-11-04T13:01:05.093Z,74.45
2022-11-04T13:03:37.629Z,74.99
2022-11-04T13:06:11.833Z,75.89
2022-11-04T13:08:44.551Z,76.24
2022-11-04T13:11:23.985Z,75.94
2022-11-04T13:14:01.755Z,76.74
2022-11-04T13:16:32.801Z,74.57
2022-11-04T13:19:01.917Z,75.99
2022-11-04T13:21:35.049Z,74.89
2022-11-04T13:24:05.586Z,75.12
2022-11-04T13:26:35.236Z,74.92
2022-11-04T13:29:12.193Z,75.99
2022-11-04T13:31:52.767Z,76.92
2022-11-04T13:34:33.243Z,76.70
2022-11-04T13:37:11.395Z,77.56
2022-11-04T13:39:46.078Z,78.09
2022-11-04T13:42:53.853Z,78.73
2022-11-04T13:45:22.348Z,79.18
2022-11-04T13:47:53.396Z,79.75
2022-11-04T13:50:36.603Z,80.40
2022-11-04T13:53:07.290Z,80.22
2022-11-04T13:55:36.964Z,80.41
2022-11-04T13:58:08.529Z,80.63
2022-11-04T14:00:39.843Z,80.86
2022-11-04T14:03:37.833Z,80.13
2022-11-04T14:06:08.839Z,80.24
2022-11-04T14:08:37.003Z,80.84
2022-11-04T14:11:11.738Z,81.12
2022-11-04T14:13:52.681Z,80.09
2022-11-04T14:16:43.264Z,80.08
2022-11-04T14:19:59.091Z,79.40
2022-11-04T14:22:36.560Z,79.83
2022-11-04T14:25:21.074Z,79.66
2022-11-04T14:27:50.867Z,79.49
2022-11-04T14:30:36.260Z,79.56
2022-11-04T14:33:10.931Z,79.12
2022-11-04T14:35:39.424Z,79.39
2022-11-04T14:38:21.133Z,79.28
2022-11-04T14:40:54.311Z,79.17
2022-11-04T14:43:35.252Z,80.14
2022-11-04T14:46:05.146Z,80.00
2022-11-04T14:48:33.512Z,80.04
2022-11-04T14:51:05.258Z,79.23
2022-11-04T14:53:37.905Z,79.04
2022-11-04T14:56:13.129Z,79.49
2022-11-04T14:58:55.610Z,78.78
2022-11-04T15:01:31.241Z,79.04
2022-11-04T15:04:14.757Z,79.52
2022-11-04T15:06:58.689Z,79.53
2022-11-04T15:09:28.963Z,80.04
2022-11-04T15:12:21.516Z,80.52
2022-11-04T15:14:49.827Z,81.07
2022-11-04T15:17:21.551Z,81.41
2022-11-04T15:19:52.220Z,81.52
2022-11-04T15:22:21.082Z,81.97
2022-11-04T15:24:50.661Z,82.48
2022-11-04T15:27:21.268Z,82.06
2022-11-04T15:29:57.129Z,81.78
2022-11-04T15:32:28.062Z,81.76
2022-11-04T15:34:58.097Z,81.76
2022-11-04T15:37:28.965Z,81.16
2022-11-04T15:39:59.360Z,81.36
2022-11-04T15:42:43.015Z,81.92
2022-11-04T15:45:35.432Z,82.34
2022-11-04T15:48:24.918Z,82.91
2022-11-04T15:51:09.316Z,83.36
2022-11-04T15:53:49.540Z,83.80
2022-11-04T15:56:20.638Z,84.19
2022-11-04T15:58:49.268Z,84.42
2022-11-04T16:01:18.920Z,84.36
2022-11-04T16:03:57.111Z,84.66
2022-11-04T16:06:36.913Z,84.67
2022-11-04T16:09:21.242Z,84.85
2022-11-04T16:12:06.959Z,84.77
2022-11-04T16:14:35.833Z,85.06
2022-11-04T16:17:04.463Z,85.32
2022-11-04T16:19:34.618Z,85.81
2022-11-04T16:22:06.124Z,85.90
2022-11-04T16:24:38.016Z,85.95
2022-11-04T16:27:10.827Z,85.88
2022-11-04T16:29:42.741Z,86.10
2022-11-04T16:32:19.764Z,86.00
2022-11-04T16:34:51.348Z,86.45
2022-11-04T16:37:19.710Z,86.36
2022-11-04T16:39:50.094Z,86.46
2022-11-04T16:42:18.482Z,86.58
2022-11-04T16:44:51.065Z,86.78
2022-11-04T16:47:20.103Z,86.54
2022-11-04T16:49:49.660Z,86.72
2022-11-04T16:52:26.239Z,87.30
2022-11-04T16:54:56.258Z,88.01
2022-11-04T16:57:26.487Z,88.09
2022-11-04T16:59:55.972Z,87.91
2022-11-04T17:02:28.050Z,87.71
2022-11-04T17:04:58.270Z,87.35
2022-11-04T17:07:46.865Z,87.22
2022-11-04T17:10:18.236Z,87.27
2022-11-04T17:12:47.060Z,87.89
2022-11-04T17:15:17.061Z,87.85
2022-11-04T17:17:45.550Z,87.86
2022-11-04T17:20:17.709Z,87.50
2022-11-04T17:22:47.540Z,87.40
2022-11-04T17:25:19.595Z,87.62
2022-11-04T17:27:47.869Z,87.97
2022-11-04T17:30:17.217Z,88.04
2022-11-04T17:32:46.276Z,88.00
2022-11-04T17:35:16.810Z,88.00
2022-11-04T17:37:45.331Z,87.73
2022-11-04T17:40:18.008Z,87.86
2022-11-04T17:43:11.227Z,87.83
2022-11-04T17:45:40.590Z,87.62
2022-11-04T17:48:10.155Z,87.95
2022-11-04T17:50:42.218Z,87.98
2022-11-04T17:53:10.918Z,87.82
2022-11-04T17:55:41.122Z,88.06
2022-11-04T17:58:09.691Z,87.93
2022-11-04T18:00:37.925Z,88.25
2022-11-04T18:03:06.795Z,88.42
2022-11-04T18:05:35.396Z,88.50
2022-11-04T18:08:05.245Z,88.16
2022-11-04T18:10:33.496Z,88.02
2022-11-04T18:13:00.787Z,88.21
2022-11-04T18:15:29.017Z,88.48
2022-11-04T18:17:57.432Z,88.87
2022-11-04T18:20:25.704Z,88.99
2022-11-04T18:22:54.014Z,88.78
2022-11-04T18:25:23.595Z,88.71
2022-11-04T18:27:51.832Z,88.51
2022-11-04T18:30:20.247Z,88.46
2022-11-04T18:32:48.463Z,88.25
2022-11-04T18:35:16.881Z,88.41
2022-11-04T18:37:47.593Z,88.60
2022-11-04T18:40:16.354Z,88.63
2022-11-04T18:42:46.061Z,88.78
2022-11-04T18:45:14.357Z,88.84
2022-11-04T18:47:42.594Z,88.99
2022-11-04T18:50:11.486Z,88.78
2022-11-04T18:52:40.464Z,88.88
2022-11-04T18:55:09.861Z,88.76
2022-11-04T18:57:38.087Z,88.81
2022-11-04T19:00:14.280Z,89.14
2022-11-04T19:02:45.123Z,89.25
2022-11-04T19:05:13.523Z,89.09
2022-11-04T19:07:42.078Z,88.92
2022-11-04T19:10:10.999Z,88.81
2022-11-04T19:12:56.882Z,88.78
2022-11-04T19:15:26.825Z,88.90
2022-11-04T19:17:55.025Z,88.80
2022-11-04T19:20:23.686Z,89.04
2022-11-04T19:22:51.987Z,89.31
2022-11-04T19:25:20.295Z,89.40
2022-11-04T19:28:05.165Z,89.57
2022-11-04T19:30:38.519Z,89.84
2022-11-04T19:33:06.999Z,89.65
2022-11-04T19:35:35.232Z,89.40
2022-11-04T19:38:03.714Z,89.06
2022-11-04T19:40:31.997Z,88.86
2022-11-04T19:43:11.216Z,88.71
2022-11-04T19:45:42.791Z,88.76
2022-11-04T19:48:12.075Z,89.05
2022-11-04T19:50:41.998Z,89.09
2022-11-04T19:53:10.379Z,89.09
2022-11-04T19:55:38.668Z,89.21
2022-11-04T19:58:07.046Z,89.15
2022-11-04T20:00:35.417Z,89.27
2022-11-04T20:03:05.234Z,89.32
2022-11-04T20:05:38.251Z,89.08
2022-11-04T20:08:06.887Z,88.93
2022-11-04T20:10:38.200Z,88.85
2022-11-04T20:13:24.000Z,88.58
2022-11-04T20:15:52.742Z,88.94
2022-11-04T20:18:22.306Z,89.32
2022-11-04T20:20:50.631Z,89.23
2022-11-04T20:23:18.826Z,89.37
2022-11-04T20:25:47.249Z,89.37
2022-11-04T20:28:15.481Z,89.26
2022-11-04T20:30:43.835Z,89.31
2022-11-04T20:33:12.049Z,89.19
2022-11-04T20:35:41.916Z,89.30
2022-11-04T20:38:10.332Z,89.35
2022-11-04T20:40:38.791Z,89.36
2022-11-04T20:43:07.394Z,89.08
2022-11-04T20:45:35.733Z,88.94
2022-11-04T20:48:03.936Z,88.86
2022-11-04T20:50:32.173Z,88.84
2022-11-04T20:53:01.814Z,88.95
2022-11-04T20:55:30.062Z,88.90
2022-11-04T20:57:58.264Z,88.83
2022-11-04T21:00:26.541Z,88.93
2022-11-04T21:02:54.799Z,88.74
2022-11-04T21:05:23.009Z,88.62
2022-11-04T21:07:51.236Z,88.76
2022-11-04T21:10:20.825Z,89.00
2022-11-04T21:12:49.037Z,89.18
2022-11-04T21:15:31.264Z,89.12
2022-11-04T21:17:59.651Z,88.89
2022-11-04T21:20:27.975Z,88.75
2022-11-04T21:22:56.225Z,88.73
2022-11-04T21:25:25.792Z,88.55
2022-11-04T21:27:54.084Z,88.57
2022-11-04T21:30:22.456Z,88.60
2022-11-04T21:32:50.839Z,88.61
2022-11-04T21:35:19.316Z,88.54
2022-11-04T21:37:47.536Z,88.15
2022-11-04T21:40:16.307Z,88.36
2022-11-04T21:42:45.923Z,88.34
2022-11-04T21:45:14.426Z,88.35
2022-11-04T21:47:42.693Z,88.48
2022-11-04T21:50:16.757Z,88.57
2022-11-04T21:52:46.642Z,88.54
2022-11-04T21:55:15.113Z,88.65
2022-11-04T21:57:43.330Z,88.86
2022-11-04T22:00:15.224Z,88.95
2022-11-04T22:02:47.097Z,89.05
2022-11-04T22:05:15.870Z,89.21
2022-11-04T22:08:01.920Z,89.05
2022-11-04T22:10:30.517Z,88.90
2022-11-04T22:12:58.799Z,89.02
2022-11-04T22:15:48.377Z,88.98
2022-11-04T22:18:17.173Z,88.92
2022-11-04T22:20:45.460Z,88.83
2022-11-04T22:23:13.685Z,88.77
2022-11-04T22:25:44.737Z,89.00
2022-11-04T22:28:17.522Z,89.08
2022-11-04T22:30:47.210Z,89.02
2022-11-04T22:33:15.555Z,88.91
2022-11-04T22:35:46.567Z,88.75
2022-11-04T22:38:15.085Z,88.86
2022-11-04T22:40:43.308Z,89.06
2022-11-04T22:43:11.796Z,89.01
2022-11-04T22:45:40.160Z,88.99
2022-11-04T22:48:09.795Z,89.34
2022-11-04T22:50:37.959Z,89.43
2022-11-04T22:53:06.451Z,89.38
2022-11-04T22:55:36.189Z,89.30
2022-11-04T22:58:04.601Z,89.11
2022-11-04T23:00:32.886Z,89.17
2022-11-04T23:03:01.336Z,89.27
2022-11-04T23:05:32.720Z,89.38
2022-11-04T23:08:01.309Z,89.46
2022-11-04T23:10:47.304Z,89.54
2022-11-04T23:13:33.111Z,89.57
2022-11-04T23:16:19.500Z,89.27
2022-11-04T23:18:52.379Z,89.46
2022-11-04T23:21:41.426Z,89.39
2022-11-04T23:24:27.310Z,89.20
2022-11-04T23:26:57.373Z,89.09
2022-11-04T23:29:42.841Z,89.03
2022-11-04T23:32:11.016Z,89.22
2022-11-04T23:34:56.609Z,89.38
2022-11-04T23:37:26.162Z,89.65
2022-11-04T23:39:54.516Z,89.81
2022-11-04T23:42:23.492Z,89.94
2022-11-04T23:45:10.667Z,90.10
2022-11-04T23:47:59.241Z,90.18
2022-11-04T23:50:46.650Z,90.14
2022-11-04T23:53:35.427Z,90.08
2022-11-04T23:56:21.457Z,89.85
2022-11-04T23:59:06.806Z,89.91
